createdAt,value
2017-08-27T00:00:13.244Z,48.97
2017-08-27T00:02:14.649Z,48.57
2017-08-27T00:04:16.574Z,52.80
2017-08-27T00:06:18.096Z,42.97
2017-08-27T00:08:19.322Z,49.67
2017-08-27T00:10:20.285Z,48.67
2017-08-27T00:12:21.249Z,47.73
2017-08-27T00:14:22.180Z,44.97
2017-08-27T00:16:23.104Z,43.60
2017-08-27T00:18:24.043Z,68.20
2017-08-27T00:20:24.981Z,54.23
2017-08-27T00:22:26.006Z,57.20
2017-08-27T00:24:26.934Z,51.57
2017-08-27T00:26:27.865Z,47.93
2017-08-27T00:28:28.808Z,64.13
2017-08-27T00:30:29.737Z,53.53
2017-08-27T00:32:30.673Z,46.50
2017-08-27T00:34:31.625Z,52.43
2017-08-27T00:36:32.564Z,48.57
2017-08-27T00:38:33.499Z,49.73
2017-08-27T00:40:41.557Z,59.20
2017-08-27T00:42:42.488Z,51.17
2017-08-27T00:44:49.789Z,46.40
2017-08-27T00:46:50.716Z,52.60
2017-08-27T00:48:51.672Z,47.77
2017-08-27T00:50:52.614Z,58.03
2017-08-27T00:52:53.551Z,54.63
2017-08-27T00:54:54.492Z,53.43
2017-08-27T00:56:55.434Z,56.03
2017-08-27T00:58:56.380Z,50.53
2017-08-27T01:00:57.325Z,55.20
2017-08-27T01:02:58.257Z,52.00
2017-08-27T01:04:59.196Z,54.43
2017-08-27T01:07:00.148Z,53.20
2017-08-27T01:09:01.092Z,53.90
2017-08-27T01:11:02.034Z,60.00
2017-08-27T01:13:03.187Z,63.73
2017-08-27T01:15:04.130Z,54.20
2017-08-27T01:17:05.065Z,60.97
2017-08-27T01:19:05.997Z,55.07
2017-08-27T01:21:06.948Z,63.53
2017-08-27T01:23:07.892Z,61.80
2017-08-27T01:25:08.864Z,60.97
2017-08-27T01:27:09.788Z,56.27
2017-08-27T01:29:10.887Z,70.77
2017-08-27T01:31:11.824Z,57.23
2017-08-27T01:33:12.757Z,49.80
2017-08-27T01:35:13.696Z,61.87
2017-08-27T01:37:14.634Z,58.40
2017-08-27T01:39:15.584Z,52.00
2017-08-27T01:41:16.519Z,62.37
2017-08-27T01:43:17.451Z,68.30
2017-08-27T01:45:18.556Z,54.00
2017-08-27T01:47:19.483Z,59.33
2017-08-27T01:49:20.417Z,56.93
2017-08-27T01:51:21.353Z,71.27
2017-08-27T01:53:22.288Z,52.80
2017-08-27T01:55:23.215Z,52.10
2017-08-27T01:57:24.155Z,55.63
2017-08-27T01:59:25.101Z,66.73
2017-08-27T02:01:26.036Z,61.80
2017-08-27T02:03:26.964Z,58.80
2017-08-27T02:05:27.900Z,60.00
2017-08-27T02:07:28.841Z,54.57
2017-08-27T02:09:29.784Z,61.33
2017-08-27T02:11:30.745Z,59.60
2017-08-27T02:13:31.677Z,63.47
2017-08-27T02:15:32.605Z,66.93
2017-08-27T02:17:33.984Z,60.80
2017-08-27T02:19:34.931Z,60.27
2017-08-27T02:21:35.895Z,71.13
2017-08-27T02:23:36.820Z,69.70
2017-08-27T02:25:37.756Z,66.17
2017-08-27T02:27:38.704Z,61.73
2017-08-27T02:29:39.631Z,64.53
2017-08-27T02:31:40.565Z,66.43
2017-08-27T02:33:41.514Z,62.03
2017-08-27T02:35:42.458Z,69.10
2017-08-27T02:37:43.397Z,57.57
2017-08-27T02:39:44.324Z,58.60
2017-08-27T02:41:45.256Z,72.50
2017-08-27T02:43:46.196Z,63.30
2017-08-27T02:45:47.129Z,68.00
2017-08-27T02:47:48.064Z,53.87
2017-08-27T02:49:49.010Z,65.97
2017-08-27T02:51:49.941Z,81.27
2017-08-27T02:53:50.878Z,61.90
2017-08-27T02:55:51.811Z,69.63
2017-08-27T02:57:52.761Z,70.73
2017-08-27T02:59:53.696Z,60.43
2017-08-27T03:01:54.634Z,67.67
2017-08-27T03:03:55.572Z,66.40
2017-08-27T03:05:56.589Z,66.03
2017-08-27T03:07:57.522Z,65.10
2017-08-27T03:09:58.461Z,50.43
2017-08-27T03:11:59.396Z,50.37
2017-08-27T03:14:00.345Z,54.17
2017-08-27T03:16:01.269Z,56.77
2017-08-27T03:18:02.198Z,56.00
2017-08-27T03:20:03.140Z,62.83
2017-08-27T03:22:04.073Z,60.17
2017-08-27T03:24:05.012Z,68.57
2017-08-27T03:26:05.942Z,57.90
2017-08-27T03:28:06.877Z,60.87
2017-08-27T03:30:07.818Z,63.70
2017-08-27T03:32:08.756Z,55.47
2017-08-27T03:34:09.704Z,62.27
2017-08-27T03:36:10.642Z,61.07
2017-08-27T03:38:11.595Z,59.47
2017-08-27T03:40:12.528Z,61.23
2017-08-27T03:42:13.456Z,58.90
2017-08-27T03:44:14.384Z,71.37
2017-08-27T03:46:15.316Z,59.00
2017-08-27T03:48:16.264Z,66.20
2017-08-27T03:50:17.207Z,71.50
2017-08-27T03:52:18.160Z,75.67
2017-08-27T03:54:19.234Z,70.63
2017-08-27T03:56:20.170Z,69.90
2017-08-27T03:58:21.120Z,64.33
2017-08-27T04:00:22.068Z,80.90
2017-08-27T04:02:23.004Z,70.13
2017-08-27T04:04:23.940Z,77.50
2017-08-27T04:06:24.891Z,72.80
2017-08-27T04:08:25.857Z,74.73
2017-08-27T04:10:26.821Z,79.40
2017-08-27T04:12:27.740Z,75.73
2017-08-27T04:14:28.663Z,82.43
2017-08-27T04:16:29.600Z,72.23
2017-08-27T04:18:30.532Z,68.30
2017-08-27T04:20:31.473Z,91.10
2017-08-27T04:22:32.416Z,80.17
2017-08-27T04:24:33.349Z,70.33
2017-08-27T04:26:34.428Z,77.53
2017-08-27T04:28:35.352Z,101.80
2017-08-27T04:30:36.301Z,76.40
2017-08-27T04:32:37.239Z,71.90
2017-08-27T04:34:38.176Z,76.77
2017-08-27T04:36:39.118Z,72.77
2017-08-27T04:38:40.040Z,81.30
2017-08-27T04:40:40.967Z,77.33
2017-08-27T04:42:41.907Z,79.57
2017-08-27T04:44:42.842Z,74.47
2017-08-27T04:46:43.788Z,71.53
2017-08-27T04:48:44.723Z,75.43
2017-08-27T04:50:45.655Z,82.90
2017-08-27T04:52:46.618Z,72.53
2017-08-27T04:54:47.552Z,75.37
2017-08-27T04:56:48.499Z,76.60
2017-08-27T04:58:49.568Z,72.17
2017-08-27T05:00:50.500Z,86.47
2017-08-27T05:02:51.427Z,81.13
2017-08-27T05:04:52.372Z,76.07
2017-08-27T05:06:53.305Z,84.23
2017-08-27T05:08:54.240Z,72.03
2017-08-27T05:10:55.177Z,81.93
2017-08-27T05:12:56.108Z,75.80
2017-08-27T05:14:57.050Z,77.40
2017-08-27T05:16:57.997Z,84.33
2017-08-27T05:18:58.941Z,79.83
2017-08-27T05:20:59.871Z,79.07
2017-08-27T05:23:00.816Z,81.93
2017-08-27T05:25:01.746Z,78.20
2017-08-27T05:27:02.685Z,94.73
2017-08-27T05:29:03.619Z,80.73
2017-08-27T05:31:04.570Z,77.13
2017-08-27T05:33:05.517Z,94.47
2017-08-27T05:35:06.453Z,75.27
2017-08-27T05:37:07.404Z,76.57
2017-08-27T05:39:08.361Z,80.27
2017-08-27T05:41:09.288Z,84.63
2017-08-27T05:43:10.228Z,88.13
2017-08-27T05:45:11.165Z,90.27
2017-08-27T05:47:12.096Z,90.73
2017-08-27T05:49:13.027Z,86.63
2017-08-27T05:51:13.957Z,88.97
2017-08-27T05:53:14.892Z,96.10
2017-08-27T05:55:15.822Z,81.07
2017-08-27T05:57:16.759Z,94.53
2017-08-27T05:59:17.699Z,101.97
2017-08-27T06:01:18.641Z,100.50
2017-08-27T06:03:19.588Z,92.37
2017-08-27T06:05:20.515Z,106.27
2017-08-27T06:07:21.440Z,95.70
2017-08-27T06:09:22.372Z,108.13
2017-08-27T06:11:23.300Z,95.87
2017-08-27T06:13:24.235Z,106.50
2017-08-27T06:15:25.164Z,93.43
2017-08-27T06:17:26.105Z,103.90
2017-08-27T06:19:27.036Z,107.60
2017-08-27T06:21:27.964Z,96.27
2017-08-27T06:23:28.908Z,90.37
2017-08-27T06:25:29.835Z,93.23
2017-08-27T06:27:30.775Z,103.27
2017-08-27T06:29:31.713Z,98.13
2017-08-27T06:31:32.640Z,101.93
2017-08-27T06:33:33.600Z,97.20
2017-08-27T06:35:34.535Z,94.87
2017-08-27T06:37:35.456Z,105.73
2017-08-27T06:39:36.405Z,102.82
2017-08-27T06:41:37.341Z,108.10
2017-08-27T06:43:38.296Z,104.40
2017-08-27T06:45:39.234Z,107.67
2017-08-27T06:47:40.160Z,101.37
2017-08-27T06:49:41.112Z,95.07
2017-08-27T06:51:42.142Z,87.80
2017-08-27T06:53:43.076Z,91.43
2017-08-27T06:55:44.015Z,90.27
2017-08-27T06:57:44.948Z,91.43
2017-08-27T06:59:45.889Z,91.73
2017-08-27T07:01:46.824Z,92.60
2017-08-27T07:03:47.748Z,91.20
2017-08-27T07:05:48.700Z,77.57
2017-08-27T07:07:49.628Z,73.17
2017-08-27T07:09:50.553Z,74.37
2017-08-27T07:11:51.488Z,78.90
2017-08-27T07:13:52.411Z,69.07
2017-08-27T07:15:53.332Z,69.63
2017-08-27T07:17:54.263Z,69.17
2017-08-27T07:19:55.205Z,62.50
2017-08-27T07:21:56.152Z,66.40
2017-08-27T07:23:57.304Z,61.60
2017-08-27T07:25:58.227Z,64.30
2017-08-27T07:27:59.169Z,61.00
2017-08-27T07:30:00.092Z,64.83
2017-08-27T07:32:01.037Z,60.50
2017-08-27T07:34:01.973Z,54.63
2017-08-27T07:36:02.905Z,47.70
2017-08-27T07:38:03.835Z,47.37
2017-08-27T07:40:04.755Z,51.27
2017-08-27T07:42:05.688Z,44.23
2017-08-27T07:44:06.623Z,48.00
2017-08-27T07:46:07.547Z,46.40
2017-08-27T07:48:08.475Z,40.10
2017-08-27T07:50:09.408Z,40.47
2017-08-27T07:52:10.372Z,41.07
2017-08-27T07:54:11.304Z,34.17
2017-08-27T07:56:12.490Z,40.37
2017-08-27T07:58:13.424Z,40.40
2017-08-27T08:00:14.361Z,31.87
2017-08-27T08:02:15.301Z,38.30
2017-08-27T08:04:16.248Z,31.80
2017-08-27T08:06:17.191Z,31.83
2017-08-27T08:08:18.124Z,29.10
2017-08-27T08:10:19.059Z,28.40
2017-08-27T08:12:19.988Z,23.73
2017-08-27T08:14:20.932Z,24.43
2017-08-27T08:16:21.860Z,25.10
2017-08-27T08:18:22.792Z,25.63
2017-08-27T08:20:23.723Z,28.80
2017-08-27T08:22:24.671Z,25.13
2017-08-27T08:24:25.627Z,29.53
2017-08-27T08:26:27.360Z,26.60
2017-08-27T08:28:28.319Z,23.57
2017-08-27T08:30:29.248Z,20.73
2017-08-27T08:32:30.180Z,19.87
2017-08-27T08:34:31.117Z,20.53
2017-08-27T08:36:32.053Z,23.87
2017-08-27T08:38:32.980Z,27.53
2017-08-27T08:40:33.924Z,21.37
2017-08-27T08:42:34.859Z,21.50
2017-08-27T08:44:35.796Z,15.87
2017-08-27T08:46:36.724Z,22.63
2017-08-27T08:48:37.666Z,18.77
2017-08-27T08:50:38.610Z,24.10
2017-08-27T08:52:39.540Z,17.63
2017-08-27T08:54:40.472Z,18.30
2017-08-27T08:56:41.404Z,17.50
2017-08-27T08:58:42.348Z,19.53
2017-08-27T09:00:43.295Z,19.50
2017-08-27T09:02:44.243Z,14.43
2017-08-27T09:04:45.183Z,13.40
2017-08-27T09:06:46.121Z,13.00
2017-08-27T09:08:47.867Z,13.13
2017-08-27T09:10:49.558Z,14.10
2017-08-27T09:12:51.402Z,12.93
2017-08-27T09:14:53.600Z,14.80
2017-08-27T09:16:55.521Z,15.20
2017-08-27T09:18:57.093Z,21.50
2017-08-27T09:20:58.570Z,24.63
2017-08-27T09:23:00.100Z,17.20
2017-08-27T09:25:01.456Z,21.23
2017-08-27T09:27:02.737Z,22.00
2017-08-27T09:29:03.676Z,22.17
2017-08-27T09:31:04.613Z,18.90
2017-08-27T09:33:05.540Z,19.03
2017-08-27T09:35:06.484Z,15.17
2017-08-27T09:37:07.621Z,13.13
2017-08-27T09:39:15.435Z,15.33
2017-08-27T09:41:16.379Z,13.87
2017-08-27T09:43:17.312Z,15.40
2017-08-27T09:45:18.304Z,16.20
2017-08-27T09:47:19.242Z,15.63
2017-08-27T09:49:20.193Z,11.50
2017-08-27T09:51:21.129Z,14.87
2017-08-27T09:53:22.064Z,15.20
2017-08-27T09:55:23.001Z,17.93
2017-08-27T09:57:23.952Z,11.13
2017-08-27T09:59:24.907Z,12.50
2017-08-27T10:01:25.853Z,11.48
2017-08-27T10:03:26.781Z,9.63
2017-08-27T10:05:28.248Z,12.33
2017-08-27T10:07:30.196Z,11.00
2017-08-27T10:09:31.188Z,9.70
2017-08-27T10:11:32.292Z,8.60
2017-08-27T10:13:33.271Z,12.30
2017-08-27T10:15:34.229Z,8.13
2017-08-27T10:17:35.184Z,9.73
2017-08-27T10:19:36.132Z,10.73
2017-08-27T10:21:37.076Z,10.07
2017-08-27T10:23:38.172Z,9.80
2017-08-27T10:25:39.157Z,9.47
2017-08-27T10:27:40.145Z,13.00
2017-08-27T10:29:41.134Z,10.70
2017-08-27T10:31:42.072Z,14.10
2017-08-27T10:33:43.028Z,12.67
2017-08-27T10:35:43.976Z,9.83
2017-08-27T10:37:45.223Z,8.17
2017-08-27T10:39:46.359Z,10.93
2017-08-27T10:41:47.307Z,13.30
2017-08-27T10:43:48.408Z,6.53
2017-08-27T10:45:49.534Z,8.90
2017-08-27T10:47:50.816Z,8.13
2017-08-27T10:49:52.036Z,12.53
2017-08-27T10:51:53.139Z,11.43
2017-08-27T10:53:54.203Z,5.30
2017-08-27T10:55:55.368Z,8.63
2017-08-27T10:57:56.360Z,7.57
2017-08-27T10:59:57.307Z,7.57
2017-08-27T11:01:58.255Z,6.70
2017-08-27T11:03:59.196Z,11.23
2017-08-27T11:06:00.142Z,7.90
2017-08-27T11:08:01.290Z,5.20
2017-08-27T11:10:02.255Z,5.00
2017-08-27T11:12:03.194Z,9.93
2017-08-27T11:14:04.147Z,8.90
2017-08-27T11:16:05.097Z,5.67
2017-08-27T11:18:06.044Z,5.57
2017-08-27T11:20:06.975Z,6.03
2017-08-27T11:22:07.920Z,12.73
2017-08-27T11:24:08.857Z,6.90
2017-08-27T11:26:09.799Z,6.33
2017-08-27T11:28:10.741Z,6.73
2017-08-27T11:30:11.681Z,5.37
2017-08-27T11:32:12.748Z,7.63
2017-08-27T11:34:13.692Z,7.60
2017-08-27T11:36:14.620Z,6.87
2017-08-27T11:38:15.564Z,6.90
2017-08-27T11:40:16.504Z,4.07
2017-08-27T11:42:17.449Z,6.33
2017-08-27T11:44:18.408Z,5.30
2017-08-27T11:46:19.376Z,5.57
2017-08-27T11:48:20.401Z,8.63
2017-08-27T11:50:21.357Z,3.90
2017-08-27T11:52:22.291Z,6.07
2017-08-27T11:54:23.223Z,3.10
2017-08-27T11:56:24.176Z,3.40
2017-08-27T11:58:25.108Z,3.60
2017-08-27T12:00:26.069Z,8.13
2017-08-27T12:02:27.012Z,5.43
2017-08-27T12:04:27.951Z,3.87
2017-08-27T12:06:28.977Z,4.60
2017-08-27T12:08:29.912Z,5.73
2017-08-27T12:10:30.857Z,3.53
2017-08-27T12:12:31.791Z,2.83
2017-08-27T12:14:32.727Z,4.10
2017-08-27T12:16:33.676Z,2.20
2017-08-27T12:18:34.611Z,4.40
2017-08-27T12:20:35.552Z,3.60
2017-08-27T12:22:36.484Z,4.67
2017-08-27T12:24:37.463Z,3.77
2017-08-27T12:26:38.403Z,2.87
2017-08-27T12:28:39.332Z,3.20
2017-08-27T12:30:40.275Z,2.43
2017-08-27T12:32:41.211Z,2.50
2017-08-27T12:34:42.135Z,3.90
2017-08-27T12:36:43.101Z,6.00
2017-08-27T12:38:44.036Z,3.87
2017-08-27T12:40:45.191Z,2.17
2017-08-27T12:42:46.136Z,3.80
2017-08-27T12:44:47.076Z,3.60
2017-08-27T12:46:48.052Z,2.00
2017-08-27T12:48:48.995Z,3.63
2017-08-27T12:50:49.935Z,1.97
2017-08-27T12:52:50.873Z,3.37
2017-08-27T12:54:51.821Z,3.58
2017-08-27T12:56:52.761Z,8.63
2017-08-27T12:58:53.704Z,3.70
2017-08-27T13:00:54.643Z,3.23
2017-08-27T13:02:55.656Z,1.77
2017-08-27T13:04:56.591Z,2.63
2017-08-27T13:06:57.528Z,4.37
2017-08-27T13:08:58.455Z,4.40
2017-08-27T13:10:59.511Z,4.50
2017-08-27T13:13:00.440Z,2.43
2017-08-27T13:15:01.377Z,3.23
2017-08-27T13:17:02.324Z,2.37
2017-08-27T13:19:03.252Z,4.13
2017-08-27T13:21:04.180Z,2.07
2017-08-27T13:23:05.128Z,2.93
2017-08-27T13:25:06.059Z,3.27
2017-08-27T13:27:06.995Z,5.40
2017-08-27T13:29:07.939Z,3.00
2017-08-27T13:31:08.888Z,4.80
2017-08-27T13:33:09.832Z,1.63
2017-08-27T13:35:10.768Z,4.60
2017-08-27T13:37:11.703Z,5.33
2017-08-27T13:39:12.640Z,2.73
2017-08-27T13:41:13.585Z,2.30
2017-08-27T13:43:14.532Z,3.67
2017-08-27T13:45:15.478Z,5.40
2017-08-27T13:47:16.403Z,3.90
2017-08-27T13:49:17.339Z,2.60
2017-08-27T13:51:18.268Z,1.77
2017-08-27T13:53:19.217Z,3.20
2017-08-27T13:55:20.168Z,2.35
2017-08-27T13:57:21.112Z,4.30
2017-08-27T13:59:22.055Z,3.60
2017-08-27T14:01:23.056Z,3.30
2017-08-27T14:03:23.992Z,1.70
2017-08-27T14:05:24.937Z,6.80
2017-08-27T14:07:25.873Z,1.67
2017-08-27T14:09:26.813Z,3.40
2017-08-27T14:11:27.751Z,8.50
2017-08-27T14:13:28.681Z,5.20
2017-08-27T14:15:29.628Z,3.33
2017-08-27T14:17:30.566Z,2.80
2017-08-27T14:19:31.503Z,2.20
2017-08-27T14:21:32.532Z,3.10
2017-08-27T14:23:33.465Z,4.33
2017-08-27T14:25:34.420Z,2.60
2017-08-27T14:27:35.372Z,3.00
2017-08-27T14:29:36.315Z,3.23
2017-08-27T14:31:37.284Z,3.37
2017-08-27T14:33:38.216Z,3.43
2017-08-27T14:35:39.166Z,2.33
2017-08-27T14:37:40.104Z,2.20
2017-08-27T14:39:41.051Z,3.10
2017-08-27T14:41:41.998Z,4.10
2017-08-27T14:43:42.929Z,4.27
2017-08-27T14:45:43.871Z,9.00
2017-08-27T14:47:44.809Z,2.93
2017-08-27T14:49:45.749Z,1.67
2017-08-27T14:51:46.696Z,4.00
2017-08-27T14:53:47.640Z,1.80
2017-08-27T14:55:48.604Z,1.83
2017-08-27T14:57:49.639Z,2.17
2017-08-27T14:59:50.593Z,3.10
2017-08-27T15:01:51.536Z,3.30
2017-08-27T15:03:52.472Z,8.43
2017-08-27T15:05:53.449Z,1.70
2017-08-27T15:07:54.507Z,3.40
2017-08-27T15:10:03.638Z,6.43
2017-08-27T15:12:04.684Z,2.60
2017-08-27T15:14:05.629Z,3.90
2017-08-27T15:16:06.580Z,2.47
2017-08-27T15:18:07.513Z,1.67
2017-08-27T15:20:08.451Z,2.60
2017-08-27T15:22:09.391Z,2.80
2017-08-27T15:24:10.336Z,5.13
2017-08-27T15:26:11.283Z,2.30
2017-08-27T15:28:12.227Z,4.53
2017-08-27T15:30:13.160Z,1.80
2017-08-27T15:32:14.112Z,1.80
2017-08-27T15:34:15.056Z,3.10
2017-08-27T15:36:16.009Z,2.70
2017-08-27T15:38:16.959Z,3.37
2017-08-27T15:40:17.962Z,1.93
2017-08-27T15:44:44.391Z,3.37
2017-08-27T15:46:45.353Z,2.60
2017-08-27T15:48:46.292Z,1.87
2017-08-27T15:50:47.215Z,2.00
2017-08-27T15:52:48.155Z,3.07
2017-08-27T15:54:49.101Z,1.47
2017-08-27T15:56:50.059Z,2.77
2017-08-27T15:58:51.009Z,3.03
2017-08-27T16:00:52.159Z,1.77
2017-08-27T16:02:53.104Z,2.00
2017-08-27T16:04:54.043Z,2.73
2017-08-27T16:06:54.986Z,5.63
2017-08-27T16:08:55.953Z,2.50
2017-08-27T16:10:56.907Z,2.70
2017-08-27T16:12:57.856Z,3.40
2017-08-27T16:14:58.791Z,1.87
2017-08-27T16:16:59.733Z,2.10
2017-08-27T16:19:00.679Z,2.60
2017-08-27T16:21:01.623Z,1.70
2017-08-27T16:23:02.567Z,3.97
2017-08-27T16:25:03.540Z,2.03
2017-08-27T16:27:04.488Z,4.03
2017-08-27T16:29:05.431Z,3.40
2017-08-27T16:31:06.376Z,3.27
2017-08-27T16:33:07.332Z,3.87
2017-08-27T16:35:08.280Z,5.13
2017-08-27T16:37:09.218Z,3.53
2017-08-27T16:39:10.168Z,3.93
2017-08-27T16:41:11.116Z,2.90
2017-08-27T16:43:12.060Z,4.13
2017-08-27T16:45:13.016Z,5.50
2017-08-27T16:47:26.548Z,3.03
2017-08-27T16:49:27.504Z,4.67
2017-08-27T16:51:28.444Z,3.17
2017-08-27T16:53:29.409Z,3.30
2017-08-27T16:55:30.361Z,2.70
2017-08-27T16:57:31.310Z,5.07
2017-08-27T16:59:32.300Z,4.15
2017-08-27T17:01:33.249Z,6.37
2017-08-27T17:03:34.199Z,5.47
2017-08-27T17:05:35.140Z,2.67
2017-08-27T17:07:36.097Z,2.10
2017-08-27T17:09:37.094Z,1.70
2017-08-27T17:11:38.015Z,3.60
2017-08-27T17:13:38.963Z,3.30
2017-08-27T17:15:39.909Z,3.33
2017-08-27T17:17:40.851Z,2.70
2017-08-27T17:19:41.822Z,2.00
2017-08-27T17:21:43.055Z,3.17
2017-08-27T17:23:44.026Z,6.30
2017-08-27T17:25:45.015Z,2.33
2017-08-27T17:27:46.248Z,4.20
2017-08-27T17:29:47.265Z,4.13
2017-08-27T17:31:48.212Z,3.63
2017-08-27T17:33:49.255Z,9.70
2017-08-27T17:35:50.202Z,3.93
2017-08-27T17:37:51.896Z,4.00
2017-08-27T17:39:52.859Z,3.77
2017-08-27T17:41:53.806Z,4.67
2017-08-27T17:43:54.769Z,7.20
2017-08-27T17:45:55.705Z,2.50
2017-08-27T17:47:56.673Z,2.90
2017-08-27T17:49:57.623Z,1.90
2017-08-27T17:51:58.569Z,2.17
2017-08-27T17:53:59.525Z,6.03
2017-08-27T17:56:00.485Z,3.00
2017-08-27T17:58:01.458Z,8.97
2017-08-27T18:00:02.464Z,3.23
2017-08-27T18:02:03.414Z,4.83
2017-08-27T18:04:04.440Z,2.93
2017-08-27T18:06:05.402Z,3.33
2017-08-27T18:08:06.357Z,6.63
2017-08-27T18:10:07.303Z,3.53
2017-08-27T18:12:08.251Z,5.10
2017-08-27T18:14:09.184Z,3.27
2017-08-27T18:16:10.140Z,2.93
2017-08-27T18:18:11.096Z,3.17
2017-08-27T18:20:12.061Z,7.00
2017-08-27T18:22:13.010Z,4.30
2017-08-27T18:24:13.961Z,4.15
2017-08-27T18:26:14.898Z,6.13
2017-08-27T18:28:15.940Z,5.00
2017-08-27T18:30:16.888Z,5.50
2017-08-27T18:32:17.852Z,4.00
2017-08-27T18:34:18.805Z,7.47
2017-08-27T18:36:19.773Z,9.47
2017-08-27T18:38:20.729Z,4.20
2017-08-27T18:40:21.675Z,2.53
2017-08-27T18:42:22.672Z,4.20
2017-08-27T18:44:23.623Z,2.50
2017-08-27T18:46:25.328Z,8.03
2017-08-27T18:48:26.276Z,3.90
2017-08-27T18:50:27.243Z,4.40
2017-08-27T18:52:28.186Z,3.73
2017-08-27T18:54:29.132Z,2.77
2017-08-27T18:56:30.090Z,4.30
2017-08-27T18:58:31.063Z,2.80
2017-08-27T19:00:32.092Z,3.30
2017-08-27T19:02:33.062Z,4.10
2017-08-27T19:04:34.024Z,6.43
2017-08-27T19:06:34.960Z,3.83
2017-08-27T19:08:35.993Z,4.93
2017-08-27T19:10:37.021Z,4.30
2017-08-27T20:36:43.138Z,6.80
2017-08-27T20:38:44.177Z,2.57
2017-08-27T20:40:45.145Z,4.87
2017-08-27T20:42:46.086Z,9.03
2017-08-27T20:44:47.054Z,7.30
2017-08-27T20:46:48.021Z,3.23
2017-08-27T20:48:48.981Z,3.70
2017-08-27T20:50:49.952Z,9.20
2017-08-27T20:52:50.897Z,3.87
2017-08-27T20:54:51.913Z,4.40
2017-08-27T20:56:52.888Z,10.73
2017-08-27T20:58:53.897Z,5.90
2017-08-27T21:00:54.872Z,3.20
2017-08-27T21:02:55.817Z,6.37
2017-08-27T21:04:56.776Z,4.27
2017-08-27T21:06:57.745Z,2.70
2017-08-27T21:08:58.715Z,2.43
2017-08-27T21:10:59.680Z,5.50
2017-08-27T21:13:00.625Z,9.10
2017-08-27T21:15:01.593Z,4.03
2017-08-27T21:17:02.576Z,6.63
2017-08-27T21:19:03.560Z,7.40
2017-08-27T21:21:04.536Z,5.00
2017-08-27T21:23:05.483Z,3.00
2017-08-27T21:25:06.468Z,8.90
2017-08-27T21:27:07.416Z,4.53
2017-08-27T21:29:08.487Z,4.00
2017-08-27T21:31:09.440Z,4.03
2017-08-27T21:33:10.571Z,6.80
2017-08-27T21:35:11.536Z,5.00
2017-08-27T21:37:12.483Z,3.87
2017-08-27T21:39:13.429Z,3.80
2017-08-27T21:41:14.389Z,3.63
2017-08-27T21:43:15.356Z,4.00
2017-08-27T21:45:16.371Z,5.03
2017-08-27T21:47:17.320Z,3.23
2017-08-27T21:49:18.276Z,10.70
2017-08-27T21:51:19.263Z,3.60
2017-08-27T21:53:20.219Z,7.70
2017-08-27T21:55:21.165Z,3.70
2017-08-27T21:57:22.154Z,4.27
2017-08-27T21:59:23.121Z,3.03
2017-08-27T22:01:24.078Z,7.10
2017-08-27T22:03:25.052Z,9.73
2017-08-27T22:05:25.999Z,4.67
2017-08-27T22:07:26.963Z,10.97
2017-08-27T22:09:28.100Z,5.13
2017-08-27T22:11:29.060Z,3.43
2017-08-27T22:13:29.996Z,3.73
2017-08-27T22:15:30.939Z,8.38
2017-08-27T22:17:31.884Z,3.00
2017-08-27T22:19:32.833Z,8.43
2017-08-27T22:21:33.791Z,10.20
2017-08-27T22:23:34.735Z,3.57
2017-08-27T22:25:35.876Z,4.83
2017-08-27T22:27:36.840Z,7.60
2017-08-27T22:29:37.797Z,5.80
2017-08-27T22:31:38.732Z,4.20
2017-08-27T22:33:39.677Z,3.30
2017-08-27T22:35:40.628Z,5.00
2017-08-27T22:37:41.594Z,3.70
2017-08-27T22:39:42.544Z,4.78
2017-08-27T22:41:43.512Z,3.90
2017-08-27T22:43:44.481Z,3.00
2017-08-27T22:45:45.427Z,10.93
2017-08-27T22:47:46.400Z,3.17
2017-08-27T22:49:47.400Z,3.00
2017-08-27T22:51:48.374Z,6.07
2017-08-27T22:53:49.333Z,4.10
2017-08-27T22:55:50.308Z,4.30
2017-08-27T22:57:51.458Z,3.67
2017-08-27T22:59:52.423Z,4.93
2017-08-27T23:01:53.434Z,6.47
2017-08-27T23:03:54.398Z,11.37
2017-08-27T23:05:55.338Z,4.63
2017-08-27T23:07:56.280Z,3.53
2017-08-27T23:09:57.216Z,5.40
2017-08-27T23:11:58.167Z,2.50
2017-08-27T23:13:59.112Z,4.13
2017-08-27T23:16:00.044Z,2.80
2017-08-27T23:18:01.000Z,2.77
2017-08-27T23:20:01.945Z,5.43
2017-08-27T23:22:02.889Z,3.50
2017-08-27T23:24:03.849Z,5.07
2017-08-27T23:26:04.812Z,5.20
2017-08-27T23:28:05.776Z,7.17
2017-08-27T23:30:06.729Z,8.60
2017-08-27T23:32:07.672Z,3.70
2017-08-27T23:34:08.627Z,9.43
2017-08-27T23:36:09.572Z,4.30
2017-08-27T23:38:10.521Z,6.43
2017-08-27T23:40:11.507Z,8.20
2017-08-27T23:42:12.480Z,5.40
2017-08-27T23:44:13.440Z,6.43
2017-08-27T23:46:14.382Z,3.50
2017-08-27T23:48:15.350Z,4.07
2017-08-27T23:50:16.307Z,2.87
2017-08-27T23:52:17.244Z,2.77
2017-08-27T23:54:18.195Z,3.17
2017-08-27T23:56:19.143Z,4.77
2017-08-27T23:58:20.083Z,4.23
